createdAt,value
2022-12-26T00:01:22.305Z,8.49
2022-12-26T00:03:50.328Z,8.44
2022-12-26T00:06:20.890Z,8.38
2022-12-26T00:08:48.467Z,8.40
2022-12-26T00:11:16.013Z,8.34
2022-12-26T00:13:43.565Z,8.29
2022-12-26T00:16:14.407Z,8.24
2022-12-26T00:18:42.278Z,8.25
2022-12-26T00:21:11.784Z,8.24
2022-12-26T00:23:39.766Z,8.15
2022-12-26T00:26:09.421Z,8.14
2022-12-26T00:28:37.215Z,8.08
2022-12-26T00:31:06.746Z,8.09
2022-12-26T00:33:35.528Z,8.03
2022-12-26T00:36:08.118Z,7.89
2022-12-26T00:38:37.190Z,7.81
2022-12-26T00:41:05.218Z,7.76
2022-12-26T00:43:32.894Z,7.71
2022-12-26T00:46:00.135Z,7.72
2022-12-26T00:48:28.269Z,7.68
2022-12-26T00:50:55.321Z,7.65
2022-12-26T00:53:23.643Z,7.61
2022-12-26T00:55:51.445Z,7.59
2022-12-26T00:58:19.489Z,7.54
2022-12-26T01:00:47.143Z,7.50
2022-12-26T01:03:14.879Z,7.46
2022-12-26T01:05:43.729Z,7.43
2022-12-26T01:08:22.509Z,7.42
2022-12-26T01:10:50.716Z,7.37
2022-12-26T01:13:17.790Z,7.34
2022-12-26T01:15:49.837Z,7.37
2022-12-26T01:18:17.048Z,7.33
2022-12-26T01:20:43.884Z,7.32
2022-12-26T01:23:11.049Z,7.27
2022-12-26T01:26:18.818Z,7.23
2022-12-26T01:28:26.392Z,7.22
2022-12-26T01:30:53.281Z,7.17
2022-12-26T01:33:20.461Z,7.07
2022-12-26T01:35:51.644Z,7.18
2022-12-26T01:38:19.446Z,7.14
2022-12-26T01:40:46.720Z,7.18
2022-12-26T01:43:15.687Z,7.10
2022-12-26T01:45:48.310Z,7.06
2022-12-26T01:48:33.795Z,6.99
2022-12-26T01:51:03.922Z,6.97
2022-12-26T01:53:36.150Z,6.93
2022-12-26T01:56:12.265Z,6.84
2022-12-26T01:58:48.540Z,6.91
2022-12-26T02:01:15.790Z,6.89
2022-12-26T02:04:05.193Z,6.90
2022-12-26T02:06:35.439Z,6.80
2022-12-26T02:09:02.726Z,6.73
2022-12-26T02:11:36.796Z,6.73
2022-12-26T02:14:07.280Z,6.63
2022-12-26T02:16:36.297Z,6.60
2022-12-26T02:19:06.742Z,6.57
2022-12-26T02:21:33.483Z,6.58
2022-12-26T02:24:12.823Z,6.49
2022-12-26T02:27:15.750Z,6.43
2022-12-26T02:30:21.073Z,6.39
2022-12-26T02:33:06.674Z,6.40
2022-12-26T02:35:58.940Z,6.36
2022-12-26T02:38:28.347Z,6.29
2022-12-26T02:41:16.569Z,6.25
2022-12-26T02:44:36.107Z,6.21
2022-12-26T02:47:22.060Z,6.52
2022-12-26T02:50:36.079Z,6.30
2022-12-26T02:53:38.429Z,6.16
2022-12-26T02:56:41.560Z,6.16
2022-12-26T02:59:55.629Z,6.16
2022-12-26T03:03:01.929Z,6.03
2022-12-26T03:05:55.890Z,5.90
2022-12-26T03:08:52.294Z,5.94
2022-12-26T03:11:38.434Z,5.85
2022-12-26T03:14:19.173Z,5.80
2022-12-26T03:17:09.634Z,5.94
2022-12-26T03:19:58.202Z,5.88
2022-12-26T03:22:51.217Z,5.69
2022-12-26T03:25:43.097Z,5.65
2022-12-26T03:28:10.227Z,5.70
2022-12-26T03:30:49.901Z,5.65
2022-12-26T03:33:42.881Z,5.57
2022-12-26T03:36:22.212Z,5.66
2022-12-26T03:39:20.819Z,5.55
2022-12-26T03:42:17.943Z,5.58
2022-12-26T03:45:15.989Z,5.52
2022-12-26T03:48:13.865Z,5.43
2022-12-26T03:51:04.278Z,5.43
2022-12-26T03:54:15.412Z,5.35
2022-12-26T03:57:06.219Z,5.33
2022-12-26T04:00:17.967Z,5.19
2022-12-26T04:03:06.432Z,5.11
2022-12-26T04:05:58.730Z,5.19
2022-12-26T04:09:07.231Z,5.10
2022-12-26T04:11:56.668Z,5.15
2022-12-26T04:14:45.285Z,5.09
2022-12-26T04:17:54.498Z,5.13
2022-12-26T04:20:35.364Z,5.11
2022-12-26T04:23:32.100Z,5.11
2022-12-26T04:26:30.899Z,5.06
2022-12-26T04:29:16.652Z,4.96
2022-12-26T04:32:17.340Z,5.01
2022-12-26T04:35:24.277Z,4.99
2022-12-26T04:38:11.117Z,4.94
2022-12-26T04:41:03.077Z,5.04
2022-12-26T04:43:51.807Z,5.01
2022-12-26T04:46:21.988Z,4.84
2022-12-26T04:49:10.459Z,4.72
2022-12-26T04:51:37.394Z,4.72
2022-12-26T04:54:05.282Z,4.69
2022-12-26T04:56:32.551Z,4.62
2022-12-26T04:59:00.022Z,4.61
2022-12-26T05:01:45.751Z,4.60
2022-12-26T05:04:33.143Z,4.54
2022-12-26T05:07:20.818Z,4.44
2022-12-26T05:09:53.367Z,4.48
2022-12-26T05:12:21.166Z,4.42
2022-12-26T05:14:48.408Z,4.37
2022-12-26T05:17:33.795Z,4.36
2022-12-26T05:20:19.567Z,4.45
2022-12-26T05:23:05.432Z,4.44
2022-12-26T05:25:54.676Z,4.36
2022-12-26T05:28:40.586Z,4.44
2022-12-26T05:31:12.682Z,4.33
2022-12-26T05:33:58.683Z,4.41
2022-12-26T05:36:37.969Z,4.29
2022-12-26T05:39:06.315Z,4.16
2022-12-26T05:41:33.441Z,4.23
2022-12-26T05:44:00.305Z,4.15
2022-12-26T05:46:27.920Z,4.10
2022-12-26T05:48:54.775Z,4.15
2022-12-26T05:51:21.909Z,4.19
2022-12-26T05:53:48.705Z,4.24
2022-12-26T05:56:17.000Z,4.24
2022-12-26T05:58:44.184Z,4.24
2022-12-26T06:01:14.222Z,4.23
2022-12-26T06:03:43.653Z,4.26
2022-12-26T06:06:11.097Z,4.22
2022-12-26T06:08:38.371Z,4.26
2022-12-26T06:11:07.953Z,4.30
2022-12-26T06:13:35.544Z,4.24
2022-12-26T06:16:07.347Z,4.32
2022-12-26T06:18:34.864Z,4.31
2022-12-26T06:21:07.073Z,4.29
2022-12-26T06:23:35.487Z,4.32
2022-12-26T06:26:03.325Z,4.24
2022-12-26T06:28:30.186Z,4.40
2022-12-26T06:31:05.198Z,4.33
2022-12-26T06:33:32.120Z,4.37
2022-12-26T06:36:04.509Z,4.31
2022-12-26T06:38:31.281Z,4.29
2022-12-26T06:40:58.474Z,4.34
2022-12-26T06:43:25.326Z,4.27
2022-12-26T06:45:57.062Z,4.29
2022-12-26T06:48:24.216Z,4.36
2022-12-26T06:50:51.631Z,4.34
2022-12-26T06:53:21.693Z,4.38
2022-12-26T06:55:49.496Z,4.39
2022-12-26T06:58:17.573Z,4.38
2022-12-26T07:00:44.650Z,4.41
2022-12-26T07:03:11.670Z,4.44
2022-12-26T07:05:39.295Z,4.46
2022-12-26T07:08:07.046Z,4.51
2022-12-26T07:10:37.536Z,4.53
2022-12-26T07:13:04.424Z,4.58
2022-12-26T07:15:34.617Z,4.65
2022-12-26T07:18:01.511Z,4.72
2022-12-26T07:20:28.559Z,4.71
2022-12-26T07:22:55.354Z,4.73
2022-12-26T07:25:22.473Z,4.79
2022-12-26T07:27:53.314Z,4.86
2022-12-26T07:30:20.592Z,4.87
2022-12-26T07:32:47.381Z,4.94
2022-12-26T07:35:14.461Z,5.04
2022-12-26T07:37:41.302Z,5.07
2022-12-26T07:40:09.026Z,5.12
2022-12-26T07:42:35.861Z,5.03
2022-12-26T07:45:02.955Z,5.09
2022-12-26T07:47:29.762Z,5.09
2022-12-26T07:49:56.833Z,5.18
2022-12-26T07:52:23.577Z,5.19
2022-12-26T07:54:50.664Z,5.21
2022-12-26T08:00:06.836Z,5.33
2022-12-26T08:02:34.701Z,5.37
2022-12-26T08:05:02.150Z,5.44
2022-12-26T08:07:29.325Z,5.45
2022-12-26T08:09:56.371Z,5.45
2022-12-26T08:12:24.576Z,5.52
2022-12-26T08:14:51.694Z,5.47
2022-12-26T08:17:18.591Z,5.48
2022-12-26T08:19:45.827Z,5.56
2022-12-26T08:22:12.652Z,5.63
2022-12-26T08:24:39.701Z,5.65
2022-12-26T08:27:06.487Z,5.69
2022-12-26T08:29:33.643Z,5.70
2022-12-26T08:32:00.501Z,5.80
2022-12-26T08:34:33.643Z,5.72
2022-12-26T08:37:00.510Z,5.75
2022-12-26T08:39:28.049Z,5.86
2022-12-26T08:41:54.849Z,5.86
2022-12-26T08:44:27.219Z,5.90
2022-12-26T08:46:54.616Z,5.95
2022-12-26T08:49:21.732Z,6.00
2022-12-26T08:51:48.554Z,6.00
2022-12-26T08:54:15.617Z,6.06
2022-12-26T08:56:42.384Z,6.13
2022-12-26T08:59:09.539Z,6.17
2022-12-26T09:01:39.298Z,6.16
2022-12-26T09:04:09.208Z,6.17
2022-12-26T09:06:38.548Z,6.29
2022-12-26T09:09:07.540Z,6.35
2022-12-26T09:11:34.779Z,6.34
2022-12-26T09:14:03.217Z,6.35
2022-12-26T09:16:49.270Z,6.42
2022-12-26T09:19:17.804Z,6.42
2022-12-26T09:21:45.503Z,6.48
2022-12-26T09:24:15.164Z,6.57
2022-12-26T09:26:42.608Z,6.68
2022-12-26T09:29:13.763Z,6.71
2022-12-26T09:31:40.866Z,6.80
2022-12-26T09:34:08.379Z,6.84
2022-12-26T09:36:40.432Z,6.87
2022-12-26T09:39:08.062Z,6.89
2022-12-26T09:41:59.933Z,7.00
2022-12-26T09:45:00.550Z,7.02
2022-12-26T09:47:44.735Z,7.13
2022-12-26T09:50:18.756Z,7.14
2022-12-26T09:52:58.228Z,7.19
2022-12-26T09:55:42.617Z,7.26
2022-12-26T09:58:17.974Z,7.33
2022-12-26T10:00:52.401Z,7.28
2022-12-26T10:03:20.075Z,7.19
2022-12-26T10:06:01.706Z,7.14
2022-12-26T10:09:09.467Z,7.08
2022-12-26T10:11:55.333Z,7.19
2022-12-26T10:14:48.192Z,7.20
2022-12-26T10:17:22.430Z,7.29
2022-12-26T10:20:14.317Z,7.24
2022-12-26T10:23:20.099Z,7.14
2022-12-26T10:26:16.764Z,7.18
2022-12-26T10:28:43.814Z,7.22
2022-12-26T10:31:35.019Z,7.29
2022-12-26T10:34:16.724Z,7.37
2022-12-26T10:37:22.496Z,7.47
2022-12-26T10:40:24.384Z,7.52
2022-12-26T10:43:05.853Z,7.48
2022-12-26T10:46:02.308Z,7.51
2022-12-26T10:48:29.804Z,7.49
2022-12-26T10:50:56.970Z,7.61
2022-12-26T10:53:23.905Z,7.68
2022-12-26T10:55:51.028Z,7.66
2022-12-26T10:58:28.602Z,7.43
2022-12-26T11:00:55.673Z,7.56
2022-12-26T11:03:22.888Z,7.43
2022-12-26T11:06:11.380Z,7.38
2022-12-26T11:08:49.523Z,7.32
2022-12-26T11:11:48.482Z,7.51
2022-12-26T11:14:33.747Z,7.70
2022-12-26T11:17:14.106Z,7.80
2022-12-26T11:19:44.405Z,7.82
2022-12-26T11:22:29.171Z,7.82
2022-12-26T11:25:12.115Z,7.80
2022-12-26T11:27:45.612Z,7.83
2022-12-26T11:30:40.238Z,7.77
2022-12-26T11:33:14.756Z,7.79
2022-12-26T11:36:13.081Z,7.84
2022-12-26T11:38:58.477Z,7.86
2022-12-26T11:41:39.706Z,7.85
2022-12-26T11:44:15.985Z,7.91
2022-12-26T11:46:53.967Z,7.82
2022-12-26T11:49:35.080Z,7.98
2022-12-26T11:52:23.790Z,8.05
2022-12-26T11:54:51.542Z,8.16
2022-12-26T11:57:22.322Z,8.29
2022-12-26T11:59:51.721Z,8.37
2022-12-26T12:02:24.142Z,8.48
2022-12-26T12:04:54.937Z,8.58
2022-12-26T12:07:31.096Z,8.52
2022-12-26T12:10:03.948Z,8.60
2022-12-26T12:12:43.509Z,8.65
2022-12-26T12:15:30.822Z,8.74
2022-12-26T12:18:31.394Z,8.67
2022-12-26T12:21:15.829Z,8.70
2022-12-26T12:23:42.590Z,8.89
2022-12-26T12:26:17.636Z,8.52
2022-12-26T12:28:53.355Z,8.76
2022-12-26T12:31:48.401Z,8.79
2022-12-26T12:34:33.245Z,8.81
2022-12-26T12:37:17.067Z,8.77
2022-12-26T12:39:55.792Z,8.78
2022-12-26T12:42:47.524Z,8.91
2022-12-26T12:45:27.396Z,8.91
2022-12-26T12:48:23.258Z,8.85
2022-12-26T12:51:07.866Z,8.93
2022-12-26T12:53:55.448Z,8.97
2022-12-26T12:56:42.129Z,9.04
2022-12-26T12:59:34.633Z,9.12
2022-12-26T13:02:15.399Z,9.01
2022-12-26T13:04:51.260Z,9.04
2022-12-26T13:07:25.693Z,9.05
2022-12-26T13:09:59.877Z,9.05
2022-12-26T13:12:35.153Z,9.05
2022-12-26T13:15:17.097Z,9.04
2022-12-26T13:18:14.898Z,9.07
2022-12-26T13:20:51.164Z,8.91
2022-12-26T13:23:55.103Z,8.93
2022-12-26T13:26:25.325Z,8.90
2022-12-26T13:28:58.946Z,8.87
2022-12-26T13:31:31.616Z,8.82
2022-12-26T13:33:58.469Z,8.76
2022-12-26T13:36:44.818Z,8.75
2022-12-26T13:39:29.696Z,8.72
2022-12-26T13:42:27.407Z,8.75
2022-12-26T13:44:54.456Z,8.63
2022-12-26T13:47:37.697Z,8.59
2022-12-26T13:50:41.878Z,8.64
2022-12-26T13:53:24.299Z,8.57
2022-12-26T13:55:55.508Z,8.49
2022-12-26T13:58:49.078Z,8.51
2022-12-26T14:01:42.832Z,8.42
2022-12-26T14:04:16.063Z,8.43
2022-12-26T14:07:20.722Z,8.35
2022-12-26T14:10:12.685Z,8.33
2022-12-26T14:13:27.781Z,8.34
2022-12-26T14:16:29.703Z,8.24
2022-12-26T14:19:11.204Z,8.19
2022-12-26T14:22:02.815Z,8.15
2022-12-26T14:24:43.461Z,8.02
2022-12-26T14:27:23.823Z,7.92
2022-12-26T14:29:59.700Z,7.84
2022-12-26T14:32:58.231Z,7.76
2022-12-26T14:35:52.113Z,7.68
2022-12-26T14:38:57.586Z,7.68
2022-12-26T14:41:43.234Z,7.59
2022-12-26T14:44:10.349Z,7.46
2022-12-26T14:46:38.743Z,7.42
2022-12-26T14:49:44.334Z,7.34
2022-12-26T14:52:25.959Z,7.31
2022-12-26T14:54:54.199Z,7.20
2022-12-26T14:57:43.793Z,7.12
2022-12-26T15:00:23.292Z,7.01
2022-12-26T15:02:59.407Z,6.97
2022-12-26T15:05:31.414Z,6.92
2022-12-26T15:08:35.020Z,6.85
2022-12-26T15:11:21.973Z,6.80
2022-12-26T15:13:51.370Z,6.70
2022-12-26T15:16:21.444Z,6.68
2022-12-26T15:18:57.370Z,6.58
2022-12-26T15:21:42.706Z,6.50
2022-12-26T15:25:08.658Z,6.44
2022-12-26T15:27:33.307Z,6.43
2022-12-26T15:30:11.960Z,6.41
2022-12-26T15:33:05.030Z,6.37
2022-12-26T15:35:45.816Z,6.34
2022-12-26T15:38:38.744Z,6.21
2022-12-26T15:41:13.801Z,6.12
2022-12-26T15:44:14.485Z,6.02
2022-12-26T15:47:19.281Z,6.00
2022-12-26T15:50:20.981Z,5.94
2022-12-26T15:53:16.992Z,5.88
2022-12-26T15:56:19.625Z,5.84
2022-12-26T15:59:43.737Z,5.75
2022-12-26T16:02:13.928Z,5.78
2022-12-26T16:04:54.077Z,5.75
2022-12-26T16:07:35.720Z,5.80
2022-12-26T16:10:15.553Z,5.78
2022-12-26T16:12:58.837Z,5.80
2022-12-26T16:15:26.215Z,5.74
2022-12-26T16:17:53.569Z,5.64
2022-12-26T16:20:43.435Z,5.64
2022-12-26T16:23:21.572Z,5.65
2022-12-26T16:25:50.728Z,5.60
2022-12-26T16:28:34.074Z,5.57
2022-12-26T16:31:01.623Z,5.58
2022-12-26T16:33:38.424Z,5.50
2022-12-26T16:36:07.391Z,5.49
2022-12-26T16:38:34.966Z,5.49
2022-12-26T16:41:17.840Z,5.56
2022-12-26T16:43:45.767Z,5.49
2022-12-26T16:46:13.557Z,5.37
2022-12-26T16:48:42.253Z,5.27
2022-12-26T16:51:43.386Z,5.29
2022-12-26T16:54:19.610Z,5.31
2022-12-26T16:56:58.598Z,5.33
2022-12-26T16:59:30.208Z,5.31
2022-12-26T17:02:00.537Z,5.33
2022-12-26T17:04:30.034Z,5.35
2022-12-26T17:06:59.281Z,5.34
2022-12-26T17:09:30.520Z,5.41
2022-12-26T17:12:02.272Z,5.38
2022-12-26T17:14:36.107Z,5.42
2022-12-26T17:17:07.435Z,5.46
2022-12-26T17:19:36.881Z,5.47
2022-12-26T17:22:36.802Z,5.44
2022-12-26T17:25:21.314Z,5.44
2022-12-26T17:28:08.833Z,5.42
2022-12-26T17:30:39.453Z,5.41
2022-12-26T17:33:26.772Z,5.43
2022-12-26T17:38:55.188Z,5.31
2022-12-26T17:41:22.497Z,5.22
2022-12-26T17:43:52.450Z,5.20
2022-12-26T17:46:19.841Z,5.27
2022-12-26T17:48:47.725Z,5.22
2022-12-26T17:51:17.304Z,5.15
2022-12-26T17:53:51.795Z,5.13
2022-12-26T17:56:22.741Z,5.11
2022-12-26T17:58:52.090Z,5.12
2022-12-26T18:01:21.643Z,5.08
2022-12-26T18:03:52.876Z,5.06
2022-12-26T18:06:21.898Z,5.07
2022-12-26T18:08:49.701Z,5.08
2022-12-26T18:11:16.895Z,5.04
2022-12-26T18:13:44.574Z,5.03
2022-12-26T18:16:19.417Z,4.97
2022-12-26T18:18:48.059Z,5.01
2022-12-26T18:21:16.213Z,5.02
2022-12-26T18:23:44.461Z,4.94
2022-12-26T18:26:31.273Z,4.92
2022-12-26T18:28:59.260Z,4.87
2022-12-26T18:31:27.904Z,4.89
2022-12-26T18:33:55.986Z,4.82
2022-12-26T18:36:38.448Z,4.81
2022-12-26T18:39:06.073Z,4.80
2022-12-26T18:41:33.288Z,4.75
2022-12-26T18:44:01.026Z,4.79
2022-12-26T18:46:29.877Z,4.73
2022-12-26T18:48:57.609Z,4.70
2022-12-26T18:51:26.362Z,4.69
2022-12-26T18:53:54.536Z,4.67
2022-12-26T18:56:24.565Z,4.63
2022-12-26T18:58:57.576Z,4.66
2022-12-26T19:01:25.916Z,4.65
2022-12-26T19:03:54.113Z,4.58
2022-12-26T19:06:25.462Z,4.52
2022-12-26T19:08:53.207Z,4.62
2022-12-26T19:11:20.873Z,4.40
2022-12-26T19:13:48.526Z,4.34
2022-12-26T19:16:16.164Z,4.40
2022-12-26T19:18:43.908Z,4.32
2022-12-26T19:21:15.624Z,4.37
2022-12-26T19:23:47.271Z,4.41
2022-12-26T19:26:16.541Z,4.50
2022-12-26T19:28:44.568Z,4.54
2022-12-26T19:31:16.541Z,4.54
2022-12-26T19:33:44.365Z,4.51
2022-12-26T19:36:15.166Z,4.51
2022-12-26T19:38:42.906Z,4.57
2022-12-26T19:41:12.497Z,4.78
2022-12-26T19:43:40.661Z,4.61
2022-12-26T19:46:15.439Z,4.64
2022-12-26T19:48:43.727Z,4.65
2022-12-26T19:51:13.947Z,4.63
2022-12-26T19:53:42.499Z,4.65
2022-12-26T19:56:23.823Z,4.75
2022-12-26T19:58:56.450Z,4.78
2022-12-26T20:01:29.675Z,4.86
2022-12-26T20:04:02.834Z,4.84
2022-12-26T20:06:32.328Z,4.89
2022-12-26T20:09:03.403Z,4.92
2022-12-26T20:11:35.717Z,4.94
2022-12-26T20:14:04.662Z,4.91
2022-12-26T20:17:04.896Z,5.00
2022-12-26T20:19:23.572Z,5.02
2022-12-26T20:21:51.136Z,5.03
2022-12-26T20:24:21.355Z,5.11
2022-12-26T20:26:49.540Z,5.24
2022-12-26T20:29:17.957Z,5.19
2022-12-26T20:31:45.157Z,5.20
2022-12-26T20:34:12.948Z,5.27
2022-12-26T20:36:41.485Z,5.33
2022-12-26T20:39:16.979Z,5.28
2022-12-26T20:41:44.141Z,5.29
2022-12-26T20:44:16.406Z,5.29
2022-12-26T20:46:44.691Z,5.27
2022-12-26T20:49:12.382Z,5.21
2022-12-26T20:51:41.080Z,5.17
2022-12-26T20:54:10.804Z,5.18
2022-12-26T20:56:38.452Z,5.17
2022-12-26T20:59:06.967Z,5.19
2022-12-26T21:01:35.262Z,5.26
2022-12-26T21:04:06.604Z,5.18
2022-12-26T21:06:36.391Z,5.21
2022-12-26T21:09:05.201Z,5.18
2022-12-26T21:11:38.404Z,5.17
2022-12-26T21:14:10.025Z,5.15
2022-12-26T21:16:39.983Z,5.10
2022-12-26T21:19:14.269Z,5.07
2022-12-26T21:21:45.887Z,5.15
2022-12-26T21:24:33.069Z,5.27
2022-12-26T21:26:59.852Z,5.16
2022-12-26T21:29:29.964Z,5.21
2022-12-26T21:31:57.365Z,5.20
2022-12-26T21:34:26.848Z,5.15
2022-12-26T21:37:13.133Z,5.11
2022-12-26T21:39:40.711Z,5.17
2022-12-26T21:42:08.172Z,5.12
2022-12-26T21:44:36.238Z,5.19
2022-12-26T21:47:05.011Z,5.20
2022-12-26T21:49:32.071Z,5.16
2022-12-26T21:51:58.882Z,5.16
2022-12-26T21:54:48.556Z,5.15
2022-12-26T21:57:17.326Z,5.19
2022-12-26T21:59:57.648Z,5.18
2022-12-26T22:02:48.851Z,5.17
2022-12-26T22:05:17.677Z,5.21
2022-12-26T22:07:45.017Z,5.27
2022-12-26T22:10:32.798Z,5.22
2022-12-26T22:13:00.913Z,5.27
2022-12-26T22:15:46.853Z,5.30
2022-12-26T22:18:13.783Z,5.26
2022-12-26T22:20:41.561Z,5.28
2022-12-26T22:23:08.347Z,5.22
2022-12-26T22:25:35.432Z,5.27
2022-12-26T22:28:02.401Z,5.30
2022-12-26T22:30:29.524Z,5.22
2022-12-26T22:32:56.475Z,5.16
2022-12-26T22:35:23.863Z,5.14
2022-12-26T22:37:50.650Z,5.07
2022-12-26T22:40:17.713Z,5.01
2022-12-26T22:42:44.481Z,5.39
2022-12-26T22:45:11.588Z,5.13
2022-12-26T22:47:38.380Z,5.05
2022-12-26T22:50:05.848Z,5.04
2022-12-26T22:52:32.631Z,5.19
2022-12-26T22:54:59.684Z,5.35
2022-12-26T22:57:26.445Z,5.32
2022-12-26T23:00:10.774Z,5.38
2022-12-26T23:02:38.303Z,5.33
2022-12-26T23:05:06.452Z,5.39
2022-12-26T23:07:33.663Z,5.38
2022-12-26T23:10:01.043Z,5.38
2022-12-26T23:12:43.380Z,5.33
2022-12-26T23:15:25.957Z,5.40
2022-12-26T23:19:04.435Z,5.36
2022-12-26T23:21:40.412Z,5.44
2022-12-26T23:24:19.585Z,5.38
2022-12-26T23:26:55.107Z,5.40
2022-12-26T23:29:42.625Z,5.47
2022-12-26T23:32:10.596Z,5.50
2022-12-26T23:34:37.358Z,5.47
2022-12-26T23:37:04.525Z,5.48
2022-12-26T23:39:31.406Z,5.52
2022-12-26T23:41:58.452Z,5.48
2022-12-26T23:44:25.257Z,5.50
2022-12-26T23:46:52.386Z,5.47
2022-12-26T23:49:19.246Z,5.53
2022-12-26T23:51:46.308Z,5.56
2022-12-26T23:54:13.152Z,5.53
2022-12-26T23:56:40.232Z,5.58
2022-12-26T23:59:06.978Z,5.54
